NCAR-RAP Real-Time Weather Data

Output produced by METARs form (23 June 2018  19:33 UTC)
found at http://weather.rap.ucar.edu/surface/
 
RJDC 231200Z 15005KT 9999 FEW020 SCT035 21/19 Q1005
RJDC 231100Z 15006KT 9999 FEW020 SCT035 BKN080 21/19 Q1005
RJDC 231000Z 14006KT 9999 FEW020 SCT035 BKN045 22/19 Q1004
RJDC 230900Z 11003KT 9999 FEW025 BKN050 BKN080 22/18 Q1004
RJDC 230800Z 20004KT 170V240 9999 FEW025 SCT035 BKN050 23/18 Q1004
RJDC 230700Z 24007KT 9999 FEW020 BKN035 BKN050 22/18 Q1004
RJDC 230600Z 22008KT 9999 FEW020 BKN035 22/18 Q1004
RJDC 230500Z 20008KT 9999 FEW015 BKN035 BKN060 22/18 Q1004
RJDC 230400Z 19004KT 9999 FEW020 SCT030 BKN060 21/17 Q1004
RJDC 230300Z 17004KT 130V200 9999 -RA FEW015 SCT045 BKN080 21/18 Q1005
RJDC 230200Z 21006KT 9999 FEW020 SCT045 BKN080 21/18 Q1005
RJDC 230100Z 23004KT 190V270 9999 -RA FEW020 SCT030 BKN070 21/18 Q1005
RJDC 230000Z 24003KT 190V290 9999 -RA FEW025 SCT070 BKN100 22/18 Q1005
RJDC 222300Z 13003KT 9999 FEW025 SCT100 BKN120 22/17 Q1005
RJDC 222200Z 11003KT 070V140 9999 FEW020 SCT120 BKN150 22/18 Q1005
RJDC 222130Z 14005KT 9999 -RA FEW025 SCT100 BKN140 22/18 Q1005
RJDC 221200Z 06010KT 9999 FEW035 SCT180 BKN/// 23/21 Q1008
RJDC 221100Z 07008KT 9999 FEW035 BKN/// 23/21 Q1008
RJDC 221000Z 07010KT 9999 FEW030 BKN/// 23/21 Q1008
RJDC 220900Z 07010KT 9999 FEW025 BKN/// 24/21 Q1007
RJDC 220800Z 07008KT 9999 FEW025 BKN/// 25/21 Q1007
RJDC 220700Z 08009KT 9999 FEW035 BKN/// 25/21 Q1007
RJDC 220600Z 09006KT 9999 FEW035 BKN/// 25/22 Q1007
RJDC 220500Z 10007KT 9999 FEW035 BKN/// 24/21 Q1008
RJDC 220400Z 11007KT 9999 FEW030 BKN/// 24/21 Q1008
RJDC 220300Z 10007KT 9999 FEW025 SCT/// 24/21 Q1009
RJDC 220200Z 10007KT 9999 FEW025 SCT/// 24/21 Q1009
RJDC 220100Z 10006KT CAVOK 23/20 Q1010
RJDC 220000Z 09005KT 9000 FEW008 BKN/// 23/20 Q1009
RJDC 212300Z 07005KT 9000 FEW005 BKN/// 22/21 Q1010
RJDC 212200Z 06003KT 9999 FEW006 BKN/// 20/19 Q1010
RJDC 212130Z 06004KT 9999 FEW006 BKN/// 20/18 Q1009
RJDC 211200Z VRB02KT 9999 FEW030 22/21 Q1007
RJDC 211100Z 27005KT 230V300 9999 FEW030 SCT/// 25/19 Q1007
RJDC 211000Z 28005KT 250V320 9999 FEW025 BKN/// 26/20 Q1006
RJDC 210900Z 29006KT 240V330 9999 FEW025 BKN/// 27/18 Q1006
RJDC 210800Z 26009KT 9999 FEW025 SCT/// 29/18 Q1005